Terminal Aerodrome Forecast
Issued by NWS Duluth, MN

Home | Current Version | Previous Version | Text Only | Print | Product List | Glossary On
Versions: 1 2 3 4 5 6 7 8 9 10 11 12 13 14 15 16 17 18 19 20 21 22 23 24 25 26
764
FTUS43 KDLH 191743
TAFINL
TAF
KINL 191743Z 1918/2018 17007KT 3SM BR OVC003
     FM192200 18006KT 6SM BR BKN007
     FM200300 18005KT 3/4SM BR OVC004
     FM200600 15005KT 1/4SM -FZDZ FG VV002=

USA.gov is the U.S. government's official web portal to all federal, state and local government web resources and services.